Time;durP1;ratioP1;P1;durP2;ratioP2;P2;SDS_P1;SDS_P2;PMS_P1;PMS_P2;Temp;Humidity;BMP_temperature;BMP_pressure;BME280_temperature;BME280_humidity;BME280_pressure;Samples;Min_cycle;Max_cycle;Signal;HPM_P1;HPM_P2
2021/05/18 00:01:32;;;;;;;0.80;0.80;;;11.00;99.90;;;;;;5016644;28;20978;-76
2021/05/18 00:03:57;;;;;;;2.93;1.53;;;11.00;99.90;;;;;;5015336;28;20829;-79
2021/05/18 00:06:24;;;;;;;1.40;1.30;;;11.00;99.90;;;;;;5017803;28;20273;-77
2021/05/18 00:11:43;;;;;;;2.97;1.03;;;11.00;99.90;;;;;;5016085;28;20226;-78
2021/05/18 00:14:11;;;;;;;1.37;1.20;;;11.00;99.90;;;;;;5016006;28;20179;-78
2021/05/18 00:16:37;;;;;;;0.80;0.80;;;11.10;99.90;;;;;;5017648;28;20231;-78
2021/05/18 00:19:05;;;;;;;0.97;0.87;;;11.00;99.90;;;;;;5016435;28;20551;-78
2021/05/18 00:21:30;;;;;;;0.90;0.80;;;11.10;99.90;;;;;;5016541;28;20191;-77
2021/05/18 00:23:56;;;;;;;1.07;0.73;;;11.00;99.90;;;;;;5015133;28;20905;-78
2021/05/18 00:26:22;;;;;;;1.20;1.10;;;11.00;99.90;;;;;;5016632;28;20245;-78
2021/05/18 00:28:47;;;;;;;1.00;0.90;;;11.00;99.90;;;;;;5016722;28;20194;-77
2021/05/18 00:31:13;;;;;;;1.13;1.03;;;11.00;99.90;;;;;;5017314;28;20209;-77
2021/05/18 00:33:42;;;;;;;6.23;1.47;;;11.10;99.90;;;;;;5015739;28;20211;-78
2021/05/18 00:36:07;;;;;;;0.90;0.90;;;11.10;99.90;;;;;;5013874;28;20187;-77
2021/05/18 00:38:33;;;;;;;1.07;0.87;;;11.10;99.90;;;;;;5017208;28;20250;-77
2021/05/18 00:41:00;;;;;;;1.10;1.00;;;11.10;99.90;;;;;;5016451;28;20187;-78
2021/05/18 00:43:26;;;;;;;1.20;1.10;;;11.00;99.90;;;;;;5013635;28;20195;-77
2021/05/18 00:45:52;;;;;;;2.00;1.30;;;11.10;99.90;;;;;;5013389;28;20176;-78
2021/05/18 00:48:20;;;;;;;3.63;1.83;;;11.10;99.90;;;;;;5013248;28;20203;-77
2021/05/18 00:50:49;;;;;;;1.93;1.63;;;11.20;99.90;;;;;;5013795;28;20180;-76
2021/05/18 00:53:16;;;;;;;1.80;1.63;;;11.10;99.90;;;;;;5015165;28;20226;-76
2021/05/18 00:55:47;;;;;;;1.77;1.50;;;11.20;99.90;;;;;;5012269;28;20176;-78
2021/05/18 01:00:59;;;;;;;1.93;1.43;;;11.20;99.90;;;;;;5010963;28;20230;-78
2021/05/18 01:03:25;;;;;;;1.70;1.60;;;11.20;99.90;;;;;;5012950;28;20183;-77
2021/05/18 01:08:36;;;;;;;2.30;2.10;;;11.30;99.90;;;;;;5010639;28;20735;-78
2021/05/18 01:11:04;;;;;;;2.03;1.70;;;11.20;99.90;;;;;;5008220;28;20271;-76
2021/05/18 01:13:33;;;;;;;1.63;1.53;;;11.20;99.90;;;;;;5007557;28;20179;-76
2021/05/18 01:15:59;;;;;;;2.30;2.10;;;11.20;99.90;;;;;;5012051;28;20195;-77
2021/05/18 01:18:24;;;;;;;3.27;1.83;;;11.20;99.90;;;;;;5014329;28;20207;-77
2021/05/18 01:21:09;;;;;;;2.70;2.17;;;11.10;99.90;;;;;;5014985;28;20202;-77
2021/05/18 01:23:35;;;;;;;3.03;1.87;;;11.10;99.90;;;;;;5013728;28;20206;-76
2021/05/18 01:26:02;;;;;;;4.03;1.87;;;11.10;99.90;;;;;;5015776;28;20190;-77
2021/05/18 01:28:28;;;;;;;2.17;1.87;;;11.20;99.90;;;;;;5014886;28;20200;-77
2021/05/18 01:30:55;;;;;;;2.40;1.87;;;11.20;99.90;;;;;;5012705;28;20211;-76
2021/05/18 01:33:20;;;;;;;2.40;2.17;;;11.20;99.90;;;;;;5015909;28;20647;-76
2021/05/18 01:35:46;;;;;;;2.00;1.80;;;11.20;99.90;;;;;;5014315;28;20188;-77
2021/05/18 01:38:15;;;;;;;2.23;1.93;;;11.20;99.90;;;;;;5015133;28;20261;-77
2021/05/18 01:43:07;;;;;;;3.17;2.47;;;11.20;99.90;;;;;;5013618;28;20207;-76
2021/05/18 01:45:34;;;;;;;4.13;2.80;;;11.20;99.90;;;;;;5014193;28;20218;-77
2021/05/18 01:48:08;;;;;;;2.80;2.50;;;11.20;99.90;;;;;;5014779;28;20836;-77
2021/05/18 01:50:34;;;;;;;4.23;2.53;;;11.20;99.90;;;;;;5014858;28;20184;-77
2021/05/18 01:53:00;;;;;;;3.30;2.77;;;11.20;99.90;;;;;;5013380;28;20179;-77
2021/05/18 01:55:42;;;;;;;2.93;2.47;;;11.20;99.90;;;;;;5008035;28;20227;-76
2021/05/18 01:58:08;;;;;;;3.33;2.60;;;11.10;99.90;;;;;;5006379;28;20203;-75
2021/05/18 02:00:37;;;;;;;4.33;2.97;;;11.10;99.90;;;;;;5010991;28;20195;-77
2021/05/18 02:03:03;;;;;;;8.30;3.00;;;11.10;99.90;;;;;;5016930;28;20176;-77
2021/05/18 02:05:39;;;;;;;4.33;2.97;;;11.10;99.90;;;;;;5013440;28;20207;-76
2021/05/18 02:08:08;;;;;;;3.90;2.73;;;11.10;99.90;;;;;;5014438;28;20210;-78
2021/05/18 02:10:33;;;;;;;3.30;2.40;;;11.10;99.90;;;;;;5008790;28;20187;-77
2021/05/18 02:12:59;;;;;;;4.27;3.13;;;11.00;99.90;;;;;;5013298;28;20218;-76
2021/05/18 02:15:39;;;;;;;3.97;3.40;;;11.00;99.90;;;;;;5013550;28;20183;-78
2021/05/18 02:19:09;;;;;;;3.13;2.67;;;11.00;99.90;;;;;;5008997;28;20203;-78
2021/05/18 02:26:17;;;;;;;4.07;3.20;;;10.80;99.90;;;;;;5010049;28;20635;-77
2021/05/18 02:28:43;;;;;;;3.77;3.03;;;10.80;99.90;;;;;;5012676;28;20215;-77
2021/05/18 02:31:09;;;;;;;4.43;4.03;;;10.70;99.90;;;;;;5011592;28;20595;-78
2021/05/18 02:33:35;;;;;;;3.07;2.77;;;10.70;99.90;;;;;;5009810;28;20176;-77
2021/05/18 02:36:01;;;;;;;4.23;2.50;;;10.70;99.90;;;;;;5012562;28;20191;-77
2021/05/18 02:38:26;;;;;;;4.50;3.50;;;10.70;99.90;;;;;;5012345;28;20215;-77
2021/05/18 02:40:52;;;;;;;3.33;3.03;;;10.80;99.90;;;;;;5012007;28;20686;-77
2021/05/18 02:43:25;;;;;;;3.23;2.90;;;10.80;99.90;;;;;;5011123;28;20214;-78
2021/05/18 02:46:06;;;;;;;2.73;2.43;;;10.70;99.90;;;;;;5012917;28;20184;-78
2021/05/18 02:51:15;;;;;;;5.27;3.83;;;10.70;99.90;;;;;;5012109;28;20264;-77
2021/05/18 02:53:41;;;;;;;4.90;3.40;;;10.60;99.90;;;;;;5011823;28;20618;-76
2021/05/18 02:56:12;;;;;;;3.63;3.13;;;10.70;99.90;;;;;;5013245;28;20180;-77
2021/05/18 02:58:39;;;;;;;6.47;3.87;;;10.60;99.90;;;;;;5010927;28;20314;-77
2021/05/18 03:01:05;;;;;;;5.17;3.80;;;10.50;99.90;;;;;;5012054;28;20199;-76
2021/05/18 03:03:30;;;;;;;4.63;3.23;;;10.50;99.90;;;;;;5012748;28;21328;-77
2021/05/18 03:05:56;;;;;;;4.50;3.33;;;10.40;99.90;;;;;;5013399;28;20233;-77
2021/05/18 03:08:22;;;;;;;7.80;4.27;;;10.40;99.90;;;;;;5011742;28;20689;-77
2021/05/18 03:10:47;;;;;;;5.37;3.23;;;10.40;99.90;;;;;;5010690;28;20207;-77
2021/05/18 03:13:13;;;;;;;4.63;3.70;;;10.30;99.90;;;;;;5012514;28;20187;-78
2021/05/18 03:15:39;;;;;;;5.20;4.20;;;10.30;99.90;;;;;;5011145;28;20745;-78
2021/05/18 03:18:05;;;;;;;3.87;3.20;;;10.30;99.90;;;;;;5009209;28;20238;-78
2021/05/18 03:20:30;;;;;;;5.67;3.60;;;10.30;99.90;;;;;;5010451;28;20938;-78
2021/05/18 03:22:56;;;;;;;5.73;3.80;;;10.30;99.90;;;;;;5014655;28;20246;-78
2021/05/18 03:25:22;;;;;;;5.50;4.43;;;10.30;99.90;;;;;;5012985;28;20207;-78
2021/05/18 03:27:48;;;;;;;7.37;4.43;;;10.20;99.90;;;;;;5010357;28;20195;-77
2021/05/18 03:30:22;;;;;;;5.47;3.67;;;10.20;99.90;;;;;;5012851;28;20180;-76
2021/05/18 03:35:32;;;;;;;5.00;3.47;;;10.30;99.90;;;;;;5008912;28;20258;-77
2021/05/18 03:38:01;;;;;;;6.90;4.53;;;10.30;99.90;;;;;;5016013;28;20443;-77
2021/05/18 03:40:29;;;;;;;6.07;4.30;;;10.20;99.90;;;;;;5008228;28;20188;-78
2021/05/18 03:43:06;;;;;;;7.80;4.30;;;10.10;99.90;;;;;;5014561;28;20175;-77
2021/05/18 03:45:33;;;;;;;5.07;3.90;;;10.00;99.90;;;;;;5015216;28;20677;-78
2021/05/18 03:53:50;;;;;;;5.03;3.60;;;10.00;99.90;;;;;;5009053;28;20185;-78
2021/05/18 04:04:18;;;;;;;4.03;3.37;;;10.10;99.90;;;;;;5012705;28;20226;-78
2021/05/18 04:17:57;;;;;;;6.53;4.13;;;10.90;99.90;;;;;;5014353;28;20250;-77
2021/05/18 04:39:52;;;;;;;4.75;3.22;;;13.90;99.90;;;;;;5018022;28;20206;-77
2021/05/18 05:00:52;;;;;;;6.63;3.45;;;12.50;99.90;;;;;;5012333;28;20206;-78
2021/05/18 05:06:18;;;;;;;4.65;2.97;;;12.50;99.90;;;;;;5012091;28;20289;-76
2021/05/18 05:16:25;;;;;;;5.40;4.55;;;13.10;99.90;;;;;;5012775;28;20194;-78
2021/05/18 05:18:51;;;;;;;4.60;3.50;;;13.80;99.90;;;;;;5013236;28;20190;-77
2021/05/18 05:21:20;;;;;;;5.55;3.92;;;14.20;99.90;;;;;;5017762;28;20188;-78
2021/05/18 05:23:46;;;;;;;5.10;3.55;;;14.80;99.90;;;;;;5018610;28;20211;-79
2021/05/18 05:26:12;;;;;;;4.63;3.50;;;15.30;99.90;;;;;;5018284;28;20745;-76
2021/05/18 05:28:37;;;;;;;5.72;4.15;;;15.90;99.90;;;;;;5017362;28;20207;-79
2021/05/18 05:31:04;;;;;;;5.97;4.10;;;15.60;99.90;;;;;;5013425;28;20983;-78
2021/05/18 05:33:29;;;;;;;3.65;3.08;;;15.20;99.90;;;;;;5015340;28;20187;-78
2021/05/18 05:35:55;;;;;;;4.93;4.22;;;14.70;99.90;;;;;;5012934;28;20187;-78
2021/05/18 05:38:22;;;;;;;5.35;3.35;;;14.50;99.90;;;;;;5012722;28;20200;-78
2021/05/18 05:40:48;;;;;;;5.40;3.97;;;14.30;99.90;;;;;;5011048;28;20670;-79
2021/05/18 05:43:14;;;;;;;5.78;4.53;;;13.90;99.90;;;;;;5010944;28;20246;-78
2021/05/18 05:45:39;;;;;;;6.50;4.35;;;13.50;99.90;;;;;;5008940;28;20321;-78
2021/05/18 05:48:06;;;;;;;4.25;3.25;;;13.00;99.90;;;;;;5010231;28;20730;-77
2021/05/18 05:50:31;;;;;;;5.47;3.60;;;12.90;99.90;;;;;;5012002;28;20269;-77
2021/05/18 05:52:57;;;;;;;4.70;4.00;;;13.10;99.90;;;;;;5011009;28;20554;-78
2021/05/18 05:55:22;;;;;;;7.70;4.18;;;13.90;99.90;;;;;;5011759;28;20202;-78
2021/05/18 05:57:48;;;;;;;5.60;3.67;;;15.00;99.90;;;;;;5013298;28;20622;-78
2021/05/18 06:00:14;;;;;;;4.60;3.13;;;16.40;99.90;;;;;;5012254;28;20557;-77
2021/05/18 06:02:40;;;;;;;8.10;3.90;;;17.30;99.90;;;;;;5012238;28;20184;-77
2021/05/18 06:05:06;;;;;;;5.68;3.58;;;18.20;99.90;;;;;;5014747;28;20267;-76
2021/05/18 06:07:32;;;;;;;5.38;2.85;;;18.90;99.90;;;;;;5015163;28;20631;-78
2021/05/18 06:10:05;;;;;;;4.70;3.10;;;19.40;99.90;;;;;;5014917;28;20242;-77
2021/05/18 06:42:38;;;;;;;4.13;2.72;;;17.80;99.90;;;;;;5014106;28;20648;-78
2021/05/18 06:47:49;;;;;;;3.53;2.35;;;15.90;99.90;;;;;;5013138;28;20218;-78
2021/05/18 06:52:45;;;;;;;4.05;2.92;;;15.30;99.90;;;;;;5013871;28;20194;-78
2021/05/18 06:55:14;;;;;;;4.22;2.20;;;15.40;99.90;;;;;;5014107;28;20180;-78
2021/05/18 06:57:43;;;;;;;3.55;2.58;;;15.30;99.90;;;;;;5027819;28;20257;-77
2021/05/18 07:00:11;;;;;;;2.97;2.33;;;15.50;99.90;;;;;;5013536;28;20184;-77
2021/05/18 07:02:39;;;;;;;2.80;1.60;;;15.80;99.90;;;;;;5013133;28;20183;-77
2021/05/18 07:05:12;;;;;;;2.92;2.05;;;15.90;99.90;;;;;;5022271;28;20298;-78
2021/05/18 07:07:38;;;;;;;2.90;2.13;;;16.20;99.90;;;;;;5012184;28;20221;-78
2021/05/18 07:10:04;;;;;;;6.25;2.70;;;16.20;99.90;;;;;;5014466;28;20171;-76
2021/05/18 07:12:30;;;;;;;3.22;2.35;;;15.90;99.90;;;;;;5012515;28;20180;-77
2021/05/18 07:14:58;;;;;;;4.60;2.03;;;16.00;99.90;;;;;;5013173;28;20198;-76
2021/05/18 07:17:24;;;;;;;3.20;2.08;;;16.00;99.90;;;;;;5013166;28;20203;-76
2021/05/18 07:19:50;;;;;;;2.33;2.13;;;16.20;99.90;;;;;;5022362;28;20202;-77
2021/05/18 07:22:15;;;;;;;2.80;2.15;;;16.10;99.90;;;;;;5012468;28;20187;-78
2021/05/18 07:24:43;;;;;;;3.55;1.92;;;15.90;99.90;;;;;;5012879;28;20215;-77
2021/05/18 07:27:09;;;;;;;2.42;1.70;;;15.40;99.90;;;;;;5012559;28;20203;-76
2021/05/18 07:29:35;;;;;;;2.92;2.38;;;15.40;99.90;;;;;;5013679;28;20218;-77
2021/05/18 07:32:00;;;;;;;3.22;1.73;;;15.30;99.90;;;;;;5010035;28;20577;-76
2021/05/18 07:34:26;;;;;;;2.83;1.73;;;15.20;99.90;;;;;;5009731;28;21294;-76
2021/05/18 07:36:52;;;;;;;3.55;2.20;;;15.20;99.90;;;;;;5016070;28;20199;-76
2021/05/18 07:39:17;;;;;;;2.72;2.20;;;15.20;99.90;;;;;;5016352;28;20290;-77
2021/05/18 07:41:43;;;;;;;2.85;2.03;;;15.10;99.90;;;;;;5015723;28;20172;-77
2021/05/18 07:44:09;;;;;;;3.28;1.98;;;14.90;99.90;;;;;;5015703;28;20264;-75
2021/05/18 07:46:38;;;;;;;1.70;1.60;;;14.50;99.90;;;;;;5013242;28;20203;-77
2021/05/18 08:00:25;;;;;;;3.10;1.88;;;15.40;99.90;;;;;;5012679;28;20214;-77
2021/05/18 08:05:26;;;;;;;3.33;1.90;;;16.10;99.90;;;;;;5013542;28;20202;-77
2021/05/18 08:07:52;;;;;;;2.28;1.30;;;16.60;99.90;;;;;;5013442;28;20305;-78
2021/05/18 08:10:23;;;;;;;1.35;0.90;;;16.30;99.90;;;;;;5013938;28;20207;-78
2021/05/18 08:12:49;;;;;;;1.35;1.25;;;15.70;99.90;;;;;;5013695;28;20175;-77
2021/05/18 08:15:31;;;;;;;1.60;1.35;;;15.50;99.90;;;;;;5006465;28;20620;-77
2021/05/18 09:01:59;;;;;;;1.73;1.33;;;16.20;99.90;;;;;;5011748;28;20281;-78
2021/05/18 09:48:25;;;;;;;2.25;1.10;;;17.00;99.90;;;;;;5011752;28;20312;-77
2021/05/18 10:36:38;;;;;;;1.52;1.30;;;17.00;99.90;;;;;;5006979;28;20187;-76
2021/05/18 10:39:30;;;;;;;1.77;1.50;;;17.10;99.90;;;;;;5009029;28;20182;-78
2021/05/18 10:42:10;;;;;;;1.65;1.17;;;17.50;99.90;;;;;;5009565;28;20674;-78
2021/05/18 10:44:56;;;;;;;1.33;1.23;;;17.40;99.90;;;;;;5011950;28;20286;-78
2021/05/18 10:47:44;;;;;;;1.80;1.70;;;17.30;99.90;;;;;;5010789;28;20222;-78
2021/05/18 10:50:12;;;;;;;1.75;1.40;;;17.30;99.90;;;;;;5010465;28;20180;-78
2021/05/18 10:52:37;;;;;;;1.55;1.45;;;17.60;99.90;;;;;;5009136;28;20188;-78
2021/05/18 10:55:08;;;;;;;2.00;1.33;;;18.10;99.90;;;;;;5011449;28;20182;-77
2021/05/18 10:57:33;;;;;;;1.80;1.70;;;18.30;99.90;;;;;;5010547;28;20267;-78
2021/05/18 11:00:08;;;;;;;1.48;1.38;;;18.10;99.90;;;;;;5011419;28;20260;-78
2021/05/18 11:02:37;;;;;;;2.33;1.40;;;17.90;99.90;;;;;;5011630;28;20305;-77
2021/05/18 11:05:11;;;;;;;1.88;1.40;;;17.70;99.90;;;;;;5015106;28;20199;-78
2021/05/18 11:07:40;;;;;;;2.17;1.35;;;18.20;99.90;;;;;;5014581;28;20252;-78
2021/05/18 11:10:20;;;;;;;2.80;1.23;;;18.50;99.90;;;;;;5012408;28;20183;-77
2021/05/18 11:12:47;;;;;;;1.92;1.17;;;18.90;99.90;;;;;;5021278;28;20528;-78
2021/05/18 11:15:15;;;;;;;2.67;1.35;;;19.10;99.90;;;;;;5012189;28;20184;-78
2021/05/18 11:17:46;;;;;;;2.25;1.60;;;18.70;99.90;;;;;;5012700;28;20301;-77
2021/05/18 11:21:07;;;;;;;2.65;1.60;;;18.30;99.90;;;;;;5012663;28;20201;-77
2021/05/18 11:26:01;;;;;;;1.52;1.42;;;17.70;99.90;;;;;;5012775;28;20318;-78
2021/05/18 11:28:29;;;;;;;1.73;1.50;;;18.00;99.90;;;;;;5013225;28;20207;-78
2021/05/18 11:30:58;;;;;;;1.20;1.10;;;17.70;99.90;;;;;;5013144;28;20230;-79
2021/05/18 11:33:42;;;;;;;1.45;1.08;;;17.50;99.90;;;;;;5013227;28;20416;-77
2021/05/18 11:36:12;;;;;;;1.20;1.10;;;17.00;99.90;;;;;;5013298;28;20172;-78
2021/05/18 11:38:48;;;;;;;1.50;0.80;;;17.30;99.90;;;;;;5010877;28;20237;-78
2021/05/18 11:41:24;;;;;;;1.13;0.90;;;17.80;99.90;;;;;;5012750;28;20522;-77
2021/05/18 11:43:51;;;;;;;1.10;1.00;;;17.90;99.90;;;;;;5012608;28;20222;-78
2021/05/18 11:46:17;;;;;;;1.55;1.13;;;17.80;99.90;;;;;;5013287;28;20717;-78
2021/05/18 11:48:55;;;;;;;1.02;0.93;;;18.00;99.90;;;;;;5013613;28;20192;-77
2021/05/18 11:51:20;;;;;;;1.00;1.00;;;18.20;99.90;;;;;;5011787;28;20186;-78
2021/05/18 11:53:48;;;;;;;1.13;0.98;;;18.20;99.90;;;;;;5013145;28;20192;-77
2021/05/18 11:56:22;;;;;;;0.60;0.60;;;18.10;99.90;;;;;;5013293;28;20735;-76
2021/05/18 11:58:48;;;;;;;1.10;1.00;;;17.90;99.90;;;;;;5013768;28;20562;-78
2021/05/18 12:01:14;;;;;;;0.70;0.70;;;17.70;99.90;;;;;;5012631;28;20290;-78
2021/05/18 12:03:39;;;;;;;1.63;1.20;;;17.70;99.90;;;;;;5010573;28;20693;-77
2021/05/18 12:06:07;;;;;;;0.90;0.80;;;17.70;99.90;;;;;;5010438;28;20203;-78
2021/05/18 12:08:38;;;;;;;0.73;0.68;;;17.80;99.90;;;;;;5012997;28;20204;-78
2021/05/18 12:11:14;;;;;;;1.40;0.93;;;17.80;99.90;;;;;;5013320;28;20191;-78
2021/05/18 12:13:40;;;;;;;0.93;0.70;;;17.60;99.90;;;;;;5012709;28;20672;-78
2021/05/18 12:16:09;;;;;;;0.95;0.95;;;17.30;99.90;;;;;;5012010;28;20183;-78
2021/05/18 12:18:36;;;;;;;2.47;1.02;;;17.10;99.90;;;;;;5012882;28;20257;-76
2021/05/18 12:21:13;;;;;;;0.70;0.70;;;17.20;99.90;;;;;;5012744;28;20190;-78
2021/05/18 12:23:40;;;;;;;0.90;0.82;;;17.20;99.90;;;;;;5020255;28;20198;-76
2021/05/18 12:26:09;;;;;;;1.00;0.90;;;17.20;99.90;;;;;;5012374;28;20199;-78
2021/05/18 12:28:35;;;;;;;0.80;0.80;;;17.20;99.90;;;;;;5019259;28;20207;-77
2021/05/18 12:31:00;;;;;;;1.27;1.00;;;17.30;99.90;;;;;;5012226;28;20271;-78
2021/05/18 12:33:39;;;;;;;1.00;0.90;;;17.00;99.90;;;;;;5013536;28;20638;-78
2021/05/18 12:36:07;;;;;;;1.38;0.70;;;17.00;99.90;;;;;;5012484;28;20550;-79
2021/05/18 12:38:33;;;;;;;0.80;0.80;;;16.90;99.90;;;;;;5013729;28;20204;-75
2021/05/18 12:41:05;;;;;;;1.17;0.73;;;16.90;99.90;;;;;;5012877;28;20218;-78
2021/05/18 12:43:42;;;;;;;0.77;0.70;;;17.10;99.90;;;;;;5011701;28;20254;-80
2021/05/18 12:46:09;;;;;;;1.00;0.90;;;17.20;99.90;;;;;;5014298;28;20183;-79
2021/05/18 12:48:49;;;;;;;0.70;0.68;;;17.30;99.90;;;;;;5014223;28;20199;-77
2021/05/18 12:51:20;;;;;;;1.02;0.82;;;17.60;99.90;;;;;;5014574;28;20176;-76
2021/05/18 12:53:46;;;;;;;0.85;0.80;;;17.90;99.90;;;;;;5013020;28;20180;-79
2021/05/18 12:56:27;;;;;;;2.20;1.45;;;18.30;99.90;;;;;;5011261;28;20547;-76
2021/05/18 12:59:10;;;;;;;0.73;0.73;;;18.60;99.90;;;;;;5006534;28;20176;-76
2021/05/18 13:01:41;;;;;;;0.90;0.85;;;18.20;99.90;;;;;;5011482;28;20561;-79
2021/05/18 13:04:10;;;;;;;1.45;1.33;;;17.90;99.90;;;;;;5012500;28;20206;-79
2021/05/18 13:06:48;;;;;;;2.10;1.13;;;17.80;99.90;;;;;;5021019;28;20362;-79
2021/05/18 13:09:22;;;;;;;2.30;1.00;;;17.90;99.90;;;;;;5016622;28;20184;-79
2021/05/18 13:12:21;;;;;;;1.05;0.80;;;18.10;99.90;;;;;;5011568;28;20194;-79
2021/05/18 13:15:00;;;;;;;1.38;1.13;;;18.20;99.90;;;;;;5009570;28;20198;-80
2021/05/18 13:17:27;;;;;;;1.30;0.95;;;18.30;99.90;;;;;;5011820;28;20203;-77
2021/05/18 13:20:12;;;;;;;1.58;1.08;;;18.20;99.90;;;;;;5011601;28;20183;-80
2021/05/18 13:22:41;;;;;;;0.95;0.88;;;17.90;99.90;;;;;;5012659;28;20183;-76
2021/05/18 13:28:02;;;;;;;1.60;0.93;;;17.90;99.90;;;;;;5012926;28;20199;-79
2021/05/18 13:30:30;;;;;;;1.50;0.82;;;18.00;99.90;;;;;;5012130;28;20250;-79
2021/05/18 13:32:56;;;;;;;2.00;1.20;;;18.20;99.90;;;;;;5010932;28;20230;-80
2021/05/18 13:35:24;;;;;;;1.63;1.05;;;18.60;99.90;;;;;;5011641;28;20660;-80
2021/05/18 13:37:50;;;;;;;1.73;0.93;;;18.90;99.90;;;;;;5010531;28;20207;-76
2021/05/18 13:40:17;;;;;;;1.13;0.93;;;18.90;99.90;;;;;;5011660;28;20187;-75
2021/05/18 13:42:43;;;;;;;1.42;0.93;;;18.90;99.90;;;;;;5011267;28;20318;-78
2021/05/18 13:45:09;;;;;;;1.10;1.00;;;18.70;99.90;;;;;;5011264;28;20699;-80
2021/05/18 13:47:35;;;;;;;3.25;1.25;;;18.70;99.90;;;;;;5011094;28;20254;-79
2021/05/18 13:50:01;;;;;;;1.02;0.88;;;18.70;99.90;;;;;;5011254;28;20175;-80
2021/05/18 13:52:27;;;;;;;1.25;1.00;;;18.40;99.90;;;;;;5010198;28;20187;-78
2021/05/18 13:54:53;;;;;;;1.02;0.93;;;18.20;99.90;;;;;;5011078;28;20185;-78
2021/05/18 13:57:19;;;;;;;1.95;1.08;;;18.10;99.90;;;;;;5010615;28;20227;-78
2021/05/18 13:59:45;;;;;;;0.98;0.90;;;18.10;99.90;;;;;;5011226;28;20214;-77
2021/05/18 14:02:11;;;;;;;1.42;1.25;;;17.80;99.90;;;;;;5011923;28;20184;-76
2021/05/18 14:04:36;;;;;;;1.67;1.20;;;17.60;99.90;;;;;;5012100;28;20674;-77
2021/05/18 14:09:57;;;;;;;2.58;1.33;;;17.50;99.90;;;;;;4982516;28;20558;-79
2021/05/18 14:12:23;;;;;;;1.05;0.93;;;17.50;99.90;;;;;;5011620;28;20191;-80
2021/05/18 14:14:48;;;;;;;1.00;0.77;;;17.60;99.90;;;;;;5012179;28;20234;-79
2021/05/18 14:17:14;;;;;;;1.83;1.08;;;17.70;99.90;;;;;;5012748;28;20199;-77
2021/05/18 14:19:39;;;;;;;1.67;0.88;;;17.90;99.90;;;;;;5010283;28;20242;-76
2021/05/18 14:22:06;;;;;;;0.80;0.70;;;17.70;99.90;;;;;;5026048;28;20886;-79
2021/05/18 14:27:26;;;;;;;1.23;1.08;;;17.80;99.90;;;;;;5004686;28;20595;-80
2021/05/18 14:29:53;;;;;;;0.95;0.80;;;17.80;99.90;;;;;;5011638;28;20407;-78
2021/05/18 14:32:19;;;;;;;1.00;0.90;;;17.70;99.90;;;;;;5010467;28;20574;-78
2021/05/18 14:34:44;;;;;;;0.75;0.75;;;17.80;99.90;;;;;;5010354;28;20194;-79
2021/05/18 14:37:11;;;;;;;1.13;0.90;;;17.80;99.90;;;;;;5012261;28;20199;-78
2021/05/18 14:45:08;;;;;;;1.05;1.05;;;18.00;99.90;;;;;;5010354;28;20398;-78
2021/05/18 14:48:21;;;;;;;1.25;0.82;;;17.80;99.90;;;;;;5010484;28;20203;-78
2021/05/18 14:56:12;;;;;;;1.23;1.13;;;17.70;99.90;;;;;;4947678;29;20192;-78
2021/05/18 14:58:38;;;;;;;1.50;1.30;;;17.80;99.90;;;;;;4997251;28;20211;-78
2021/05/18 15:01:04;;;;;;;0.95;0.93;;;17.80;99.90;;;;;;5008658;28;20684;-78
2021/05/18 15:03:32;;;;;;;1.10;1.00;;;17.90;99.90;;;;;;5009234;28;20203;-78
2021/05/18 15:05:58;;;;;;;1.50;1.10;;;17.90;99.90;;;;;;5007997;28;20215;-78
2021/05/18 15:08:25;;;;;;;2.25;1.38;;;17.70;99.90;;;;;;5008741;28;20269;-78
2021/05/18 15:10:53;;;;;;;0.80;0.80;;;17.60;99.90;;;;;;5009277;28;20741;-77
2021/05/18 15:13:18;;;;;;;1.45;1.08;;;17.70;99.90;;;;;;5010264;28;20187;-78
2021/05/18 15:15:44;;;;;;;1.95;1.10;;;17.60;99.90;;;;;;5010609;28;20179;-78
2021/05/18 15:18:10;;;;;;;3.72;1.40;;;17.40;99.90;;;;;;5010165;28;20274;-78
2021/05/18 15:20:36;;;;;;;1.45;1.00;;;17.50;99.90;;;;;;5010826;28;20275;-76
2021/05/18 15:23:01;;;;;;;2.20;2.00;;;17.70;99.90;;;;;;5010327;28;20238;-78
2021/05/18 15:25:27;;;;;;;2.60;2.00;;;17.60;99.90;;;;;;5024721;28;20286;-78
2021/05/18 15:27:53;;;;;;;4.03;2.35;;;17.60;99.90;;;;;;5010548;28;20208;-78
2021/05/18 15:30:19;;;;;;;2.10;1.35;;;17.60;99.90;;;;;;5009701;28;20210;-78
2021/05/18 15:32:44;;;;;;;2.22;1.60;;;17.60;99.90;;;;;;5009777;28;20195;-78
2021/05/18 15:35:10;;;;;;;2.28;1.40;;;17.60;99.90;;;;;;5008714;28;20671;-78
2021/05/18 15:37:36;;;;;;;1.30;1.20;;;17.80;99.90;;;;;;5009157;28;20227;-76
2021/05/18 15:40:04;;;;;;;1.15;1.05;;;17.80;99.90;;;;;;5009376;28;20251;-78
2021/05/18 15:42:29;;;;;;;2.00;1.50;;;17.80;99.90;;;;;;5009188;28;20489;-77
2021/05/18 15:44:55;;;;;;;1.90;1.40;;;18.00;99.90;;;;;;5009058;28;20199;-76
2021/05/18 15:47:22;;;;;;;0.90;0.90;;;18.20;99.90;;;;;;5010674;28;20489;-77
2021/05/18 15:49:48;;;;;;;1.35;1.25;;;18.20;99.90;;;;;;5010917;28;20688;-78
2021/05/18 15:52:13;;;;;;;1.23;1.08;;;18.10;99.90;;;;;;5013097;28;20554;-77
2021/05/18 15:54:39;;;;;;;3.38;1.33;;;17.80;99.90;;;;;;5013688;28;20183;-78
2021/05/18 15:57:05;;;;;;;2.17;1.35;;;17.70;99.90;;;;;;5012122;28;20230;-78
2021/05/18 15:59:30;;;;;;;2.58;1.60;;;17.60;99.90;;;;;;5010839;28;20603;-77
2021/05/18 16:01:56;;;;;;;1.52;1.42;;;17.50;99.90;;;;;;5008936;28;20569;-78
2021/05/18 16:04:23;;;;;;;1.40;1.30;;;17.30;99.90;;;;;;5012724;28;20242;-78
2021/05/18 16:06:49;;;;;;;2.38;1.02;;;17.00;99.90;;;;;;5012658;28;20387;-77
2021/05/18 16:09:14;;;;;;;1.60;1.00;;;16.90;99.90;;;;;;5012092;28;20186;-77
2021/05/18 16:11:41;;;;;;;1.73;1.23;;;16.70;99.90;;;;;;5012930;28;20565;-78
2021/05/18 16:14:07;;;;;;;2.70;1.48;;;16.50;99.90;;;;;;5012238;28;20207;-77
2021/05/18 16:16:33;;;;;;;2.17;1.98;;;16.00;99.90;;;;;;5012240;28;20209;-78
2021/05/18 16:18:59;;;;;;;1.63;1.52;;;15.70;99.90;;;;;;5013358;28;20180;-78
2021/05/18 16:21:26;;;;;;;1.63;1.50;;;15.50;99.90;;;;;;5011957;28;20198;-78
2021/05/18 16:23:55;;;;;;;2.67;1.95;;;15.20;99.90;;;;;;5012226;28;20223;-78
2021/05/18 16:26:27;;;;;;;2.65;2.20;;;15.10;99.90;;;;;;5012895;28;20439;-77
2021/05/18 16:28:54;;;;;;;2.03;1.83;;;15.00;99.90;;;;;;5012845;28;20230;-77
2021/05/18 16:31:21;;;;;;;2.47;1.88;;;14.90;99.90;;;;;;5012163;28;20266;-77
2021/05/18 16:33:47;;;;;;;2.28;1.80;;;14.90;99.90;;;;;;5013063;28;20548;-78
2021/05/18 16:36:13;;;;;;;2.10;1.80;;;14.80;99.90;;;;;;5011318;28;20183;-77
2021/05/18 16:38:39;;;;;;;3.88;1.70;;;14.80;99.90;;;;;;5012355;28;20207;-77
2021/05/18 16:41:05;;;;;;;3.40;1.88;;;14.70;99.90;;;;;;5012283;28;20894;-77
2021/05/18 16:43:33;;;;;;;2.45;2.20;;;14.60;99.90;;;;;;5011018;28;20192;-77
2021/05/18 16:45:59;;;;;;;1.50;1.40;;;14.70;99.90;;;;;;5011163;28;20577;-77
2021/05/18 16:48:27;;;;;;;2.60;2.00;;;14.60;99.90;;;;;;5010968;28;20207;-77
2021/05/18 16:50:53;;;;;;;3.70;1.90;;;14.50;99.90;;;;;;5011410;28;20324;-77
2021/05/18 16:53:19;;;;;;;2.83;2.13;;;14.50;99.90;;;;;;5009943;28;20186;-77
2021/05/18 16:55:45;;;;;;;1.88;1.65;;;14.60;99.90;;;;;;5011274;28;20183;-78
2021/05/18 16:58:10;;;;;;;2.00;1.75;;;14.60;99.90;;;;;;5011759;28;20209;-77
2021/05/18 17:00:36;;;;;;;2.28;1.92;;;14.60;99.90;;;;;;5010343;28;20191;-77
2021/05/18 17:03:02;;;;;;;2.88;1.67;;;14.60;99.90;;;;;;5011848;28;20651;-76
2021/05/18 17:05:30;;;;;;;1.73;1.63;;;14.60;99.90;;;;;;5009183;28;20224;-77
2021/05/18 17:07:56;;;;;;;2.38;2.00;;;14.60;99.90;;;;;;5011695;28;20220;-77
2021/05/18 17:10:25;;;;;;;2.92;2.10;;;14.60;99.90;;;;;;5009686;28;20230;-77
2021/05/18 17:12:52;;;;;;;2.10;1.90;;;14.50;99.90;;;;;;5011604;28;20176;-77
2021/05/18 17:15:19;;;;;;;2.15;1.85;;;14.50;99.90;;;;;;5010982;28;20245;-76
2021/05/18 17:17:46;;;;;;;3.35;2.03;;;14.40;99.90;;;;;;5011262;28;20200;-77
2021/05/18 17:20:13;;;;;;;1.83;1.52;;;14.40;99.90;;;;;;5011210;28;20179;-78
2021/05/18 17:22:41;;;;;;;2.55;2.00;;;14.40;99.90;;;;;;5009824;28;20757;-77
2021/05/18 17:25:08;;;;;;;3.03;1.60;;;14.40;99.90;;;;;;5010556;28;20210;-77
2021/05/18 17:27:36;;;;;;;3.63;1.98;;;14.40;99.90;;;;;;5009622;28;20226;-78
2021/05/18 17:30:04;;;;;;;3.92;2.00;;;14.30;99.90;;;;;;5010834;28;20178;-78
2021/05/18 17:32:30;;;;;;;3.25;2.28;;;14.20;99.90;;;;;;5007489;28;20188;-77
2021/05/18 17:34:55;;;;;;;3.88;2.25;;;14.20;99.90;;;;;;5007531;28;20666;-76
2021/05/18 17:37:21;;;;;;;2.10;1.85;;;14.10;99.90;;;;;;5008753;28;20207;-78
2021/05/18 17:39:47;;;;;;;2.78;1.92;;;14.10;99.90;;;;;;5011475;28;20188;-77
2021/05/18 17:42:15;;;;;;;4.22;2.53;;;14.00;99.90;;;;;;5010555;28;20184;-78
2021/05/18 17:44:41;;;;;;;2.15;1.90;;;14.00;99.90;;;;;;5009705;28;20225;-77
2021/05/18 17:47:06;;;;;;;3.75;2.63;;;14.00;99.90;;;;;;5010073;28;20203;-76
2021/05/18 17:49:32;;;;;;;2.45;2.00;;;13.90;99.90;;;;;;5009259;28;20191;-77
2021/05/18 17:51:59;;;;;;;2.78;2.20;;;13.70;99.90;;;;;;5009638;28;20218;-77
2021/05/18 17:54:24;;;;;;;2.20;2.00;;;13.70;99.90;;;;;;5008528;28;20699;-77